Time;durP1;ratioP1;P1;durP2;ratioP2;P2;SDS_P1;SDS_P2;PMS_P1;PMS_P2;Temp;Humidity;BMP_temperature;BMP_pressure;BME280_temperature;BME280_humidity;BME280_pressure;Samples;Min_cycle;Max_cycle;Signal;HPM_P1;HPM_P2
2021/07/16 00:01:26;;;;;;;3.03;2.57;;;19.80;99.90;;;;;;4933310;29;20207;-82
2021/07/16 00:03:52;;;;;;;1.93;1.33;;;19.80;99.90;;;;;;4935203;29;20651;-82
2021/07/16 00:06:18;;;;;;;1.70;1.60;;;19.80;99.90;;;;;;4926552;29;20442;-82
2021/07/16 00:08:43;;;;;;;2.80;1.73;;;19.80;99.90;;;;;;4934928;29;20175;-82
2021/07/16 00:11:09;;;;;;;4.60;1.77;;;19.70;99.90;;;;;;4951098;29;20469;-82
2021/07/16 00:13:35;;;;;;;2.00;1.90;;;19.70;99.90;;;;;;4944314;29;20182;-83
2021/07/16 00:16:01;;;;;;;3.23;2.17;;;19.80;99.90;;;;;;4938606;29;20657;-81
2021/07/16 00:18:26;;;;;;;2.33;1.53;;;19.90;99.90;;;;;;4945723;29;20464;-84
2021/07/16 00:20:52;;;;;;;2.50;2.37;;;19.90;99.90;;;;;;4940021;28;20178;-81
2021/07/16 00:23:18;;;;;;;1.30;1.10;;;19.90;99.90;;;;;;4935773;29;20186;-82
2021/07/16 00:25:43;;;;;;;2.67;2.57;;;20.00;99.90;;;;;;4933900;29;20269;-83
2021/07/16 00:28:09;;;;;;;1.97;1.53;;;20.00;99.90;;;;;;4928788;29;20563;-83
2021/07/16 00:30:35;;;;;;;4.37;1.30;;;20.00;99.90;;;;;;4932844;29;20464;-84
2021/07/16 00:33:02;;;;;;;4.60;4.20;;;20.00;99.90;;;;;;4931215;29;20470;-83
2021/07/16 00:35:28;;;;;;;2.93;2.00;;;20.00;99.90;;;;;;4927942;29;20458;-82
2021/07/16 00:37:53;;;;;;;1.53;1.43;;;20.00;99.90;;;;;;4935709;29;20470;-82
2021/07/16 00:40:19;;;;;;;1.10;1.00;;;19.90;99.90;;;;;;4942560;29;20182;-83
2021/07/16 00:42:44;;;;;;;1.23;1.13;;;20.00;99.90;;;;;;4943258;29;20196;-83
2021/07/16 00:45:12;;;;;;;3.07;2.63;;;20.00;99.90;;;;;;4931986;29;20196;-84
2021/07/16 00:47:39;;;;;;;3.73;2.73;;;20.00;99.90;;;;;;4936263;29;20174;-82
2021/07/16 00:50:13;;;;;;;1.80;1.33;;;20.00;99.90;;;;;;4932800;29;20992;-82
2021/07/16 00:52:42;;;;;;;1.10;0.87;;;19.90;99.90;;;;;;4940626;29;20541;-82
2021/07/16 00:55:09;;;;;;;2.47;1.93;;;19.80;99.90;;;;;;4938850;29;20426;-83
2021/07/16 00:57:38;;;;;;;2.60;1.73;;;19.70;99.90;;;;;;4940023;29;20489;-84
2021/07/16 01:00:07;;;;;;;2.13;2.03;;;19.70;99.90;;;;;;4936230;29;20426;-85
2021/07/16 01:02:32;;;;;;;2.30;1.43;;;19.70;99.90;;;;;;4938792;29;20453;-83
2021/07/16 01:04:58;;;;;;;4.93;1.57;;;19.70;99.90;;;;;;4931669;29;21060;-83
2021/07/16 01:07:23;;;;;;;2.50;2.37;;;19.70;99.90;;;;;;4944408;29;20179;-83
2021/07/16 01:09:51;;;;;;;3.43;3.13;;;19.70;99.90;;;;;;4935081;29;20668;-83
2021/07/16 01:12:19;;;;;;;3.37;3.10;;;19.60;99.90;;;;;;4936538;29;20205;-83
2021/07/16 01:14:45;;;;;;;2.63;2.40;;;19.60;99.90;;;;;;4931434;29;20430;-83
2021/07/16 01:17:10;;;;;;;7.00;4.27;;;19.60;99.90;;;;;;4935083;29;20415;-82
2021/07/16 01:20:10;;;;;;;2.30;1.43;;;19.70;99.90;;;;;;4933200;29;20424;-81
2021/07/16 01:22:38;;;;;;;2.30;2.00;;;19.60;99.90;;;;;;4919037;29;20203;-83
2021/07/16 01:25:10;;;;;;;1.73;1.60;;;19.60;99.90;;;;;;4934143;29;20442;-83
2021/07/16 01:27:36;;;;;;;2.83;2.63;;;19.60;99.90;;;;;;4944955;29;20423;-82
2021/07/16 01:30:04;;;;;;;1.10;1.00;;;19.60;99.90;;;;;;4931413;29;21013;-82
2021/07/16 01:32:30;;;;;;;2.20;2.03;;;19.60;99.90;;;;;;4939595;29;20472;-83
2021/07/16 01:34:56;;;;;;;2.70;1.70;;;19.60;99.90;;;;;;4932035;29;20428;-82
2021/07/16 01:37:22;;;;;;;2.37;1.80;;;19.60;99.90;;;;;;4930357;29;20182;-82
2021/07/16 01:39:47;;;;;;;1.83;1.53;;;19.60;99.90;;;;;;4941679;28;20189;-83
2021/07/16 01:42:14;;;;;;;2.30;2.10;;;19.60;99.90;;;;;;4938647;29;20222;-82
2021/07/16 01:44:42;;;;;;;2.47;2.27;;;19.60;99.90;;;;;;4935029;29;20799;-82
2021/07/16 01:47:09;;;;;;;1.77;1.57;;;19.60;99.90;;;;;;4942837;29;20435;-84
2021/07/16 01:49:34;;;;;;;1.60;1.50;;;19.60;99.90;;;;;;4926522;29;20438;-82
2021/07/16 01:52:20;;;;;;;1.80;1.70;;;19.50;99.90;;;;;;4935738;29;20463;-83
2021/07/16 01:54:45;;;;;;;1.20;1.10;;;19.40;99.90;;;;;;4934203;29;20551;-82
2021/07/16 01:57:23;;;;;;;4.20;1.30;;;19.40;99.90;;;;;;4938436;29;20429;-83
2021/07/16 01:59:49;;;;;;;1.37;1.27;;;19.50;99.90;;;;;;4937491;29;20178;-83
2021/07/16 02:02:15;;;;;;;1.77;1.50;;;19.40;99.90;;;;;;4936659;29;20459;-83
2021/07/16 02:04:42;;;;;;;1.67;1.57;;;19.40;99.90;;;;;;4938813;29;20561;-82
2021/07/16 02:07:08;;;;;;;2.40;1.40;;;19.40;99.90;;;;;;4937204;29;20430;-84
2021/07/16 02:09:34;;;;;;;1.43;1.33;;;19.30;99.90;;;;;;4936912;29;20426;-85
2021/07/16 02:11:59;;;;;;;1.40;0.90;;;19.30;99.90;;;;;;4937747;29;20809;-83
2021/07/16 02:14:26;;;;;;;3.00;2.90;;;19.30;99.90;;;;;;4938574;29;20610;-85
2021/07/16 02:16:54;;;;;;;2.13;1.20;;;19.30;99.90;;;;;;4935133;29;20645;-83
2021/07/16 02:19:20;;;;;;;0.80;0.80;;;19.20;99.90;;;;;;4938077;29;20510;-82
2021/07/16 02:21:45;;;;;;;1.10;0.80;;;19.20;99.90;;;;;;4938615;29;20972;-82
2021/07/16 02:24:11;;;;;;;2.57;2.23;;;19.20;99.90;;;;;;4939210;29;20438;-82
2021/07/16 02:26:37;;;;;;;4.73;2.27;;;19.10;99.90;;;;;;4937272;29;20331;-83
2021/07/16 02:29:03;;;;;;;2.70;1.90;;;19.10;99.90;;;;;;4938390;28;20218;-82
2021/07/16 02:31:29;;;;;;;3.17;2.97;;;19.10;99.90;;;;;;4938230;29;20533;-82
2021/07/16 02:33:54;;;;;;;2.90;2.70;;;19.10;99.90;;;;;;4937817;29;20503;-83
2021/07/16 02:36:20;;;;;;;3.70;3.50;;;19.10;99.90;;;;;;4934655;29;20545;-83
2021/07/16 02:38:46;;;;;;;1.53;1.43;;;19.10;99.90;;;;;;4937724;29;20177;-83
2021/07/16 02:41:11;;;;;;;1.80;1.70;;;19.00;99.90;;;;;;4937068;29;20302;-84
2021/07/16 02:43:38;;;;;;;3.90;1.67;;;19.00;99.90;;;;;;4938851;29;20205;-83
2021/07/16 02:46:04;;;;;;;3.43;1.07;;;19.00;99.90;;;;;;4938348;29;20549;-83
2021/07/16 02:48:30;;;;;;;2.97;2.03;;;19.00;99.90;;;;;;4952496;29;20419;-82
2021/07/16 02:50:55;;;;;;;3.83;1.33;;;18.90;99.90;;;;;;4933861;29;20200;-81
2021/07/16 02:53:21;;;;;;;3.33;2.53;;;19.00;99.90;;;;;;4936100;29;20175;-82
2021/07/16 02:55:48;;;;;;;6.63;2.80;;;18.90;99.90;;;;;;4934910;29;20271;-82
2021/07/16 02:58:15;;;;;;;1.57;1.47;;;18.90;99.90;;;;;;4942770;29;20182;-83
2021/07/16 03:00:41;;;;;;;2.13;2.00;;;18.90;99.90;;;;;;4948922;29;20462;-82
2021/07/16 03:03:06;;;;;;;0.90;0.90;;;18.80;99.90;;;;;;4940846;29;20449;-82
2021/07/16 03:05:37;;;;;;;0.90;0.80;;;18.90;99.90;;;;;;4941870;28;20215;-83
2021/07/16 03:08:08;;;;;;;2.33;2.13;;;18.90;99.90;;;;;;4944740;29;20519;-85
2021/07/16 03:10:37;;;;;;;1.40;1.30;;;18.90;99.90;;;;;;4934079;29;20448;-82
2021/07/16 03:13:05;;;;;;;2.93;1.40;;;18.80;99.90;;;;;;4940143;29;20801;-83
2021/07/16 03:15:31;;;;;;;3.83;1.97;;;18.80;99.90;;;;;;4942083;29;20423;-82
2021/07/16 03:17:57;;;;;;;1.67;1.57;;;18.80;99.90;;;;;;4949861;28;20427;-83
2021/07/16 03:20:29;;;;;;;3.97;2.40;;;18.70;99.90;;;;;;4942344;29;20414;-84
2021/07/16 03:22:56;;;;;;;2.60;1.73;;;18.80;99.90;;;;;;4950008;28;20807;-84
2021/07/16 03:25:22;;;;;;;1.40;1.20;;;18.80;99.90;;;;;;4937179;29;20944;-83
2021/07/16 03:27:49;;;;;;;1.30;1.20;;;18.60;99.90;;;;;;4935942;29;20948;-83
2021/07/16 03:30:26;;;;;;;1.10;1.00;;;18.60;99.90;;;;;;4936953;29;20517;-82
2021/07/16 03:32:52;;;;;;;2.30;2.10;;;18.70;99.90;;;;;;4935654;29;20805;-83
2021/07/16 03:35:19;;;;;;;1.57;1.27;;;18.70;99.90;;;;;;4935308;29;20415;-82
2021/07/16 03:37:45;;;;;;;2.10;1.93;;;18.70;99.90;;;;;;4935632;29;20657;-84
2021/07/16 03:40:13;;;;;;;2.00;1.70;;;18.80;99.90;;;;;;4937579;29;20410;-84
2021/07/16 03:42:39;;;;;;;3.23;1.57;;;18.70;99.90;;;;;;4936951;29;20445;-82
2021/07/16 03:45:07;;;;;;;3.13;2.90;;;18.70;99.90;;;;;;4936578;29;20423;-82
2021/07/16 03:47:33;;;;;;;3.07;2.40;;;18.70;99.90;;;;;;4935541;29;20175;-82
2021/07/16 03:49:58;;;;;;;1.60;1.50;;;18.70;99.90;;;;;;4937553;29;20951;-82
2021/07/16 03:52:25;;;;;;;2.70;1.33;;;18.70;99.90;;;;;;4936772;29;20205;-82
2021/07/16 03:54:51;;;;;;;1.43;1.33;;;18.70;99.90;;;;;;4936868;29;20171;-82
2021/07/16 03:57:17;;;;;;;3.23;2.50;;;18.60;99.90;;;;;;4944977;29;20418;-83
2021/07/16 03:59:42;;;;;;;4.97;1.80;;;18.60;99.90;;;;;;4936368;29;20522;-84
2021/07/16 04:02:08;;;;;;;5.37;1.53;;;18.70;99.90;;;;;;4933324;29;20475;-83
2021/07/16 04:04:34;;;;;;;0.87;0.70;;;18.60;99.90;;;;;;4933916;29;20164;-85
2021/07/16 04:07:00;;;;;;;2.20;2.10;;;18.50;99.90;;;;;;4935772;29;20262;-85
2021/07/16 04:09:27;;;;;;;0.70;0.50;;;18.40;99.90;;;;;;4935772;29;20565;-83
2021/07/16 04:12:14;;;;;;;5.13;1.63;;;18.40;99.90;;;;;;4935462;29;20578;-82
2021/07/16 04:14:46;;;;;;;1.13;1.03;;;18.40;99.90;;;;;;4936788;29;20426;-83
2021/07/16 04:17:14;;;;;;;1.93;1.73;;;18.40;99.90;;;;;;4935869;29;20407;-82
2021/07/16 04:19:42;;;;;;;0.87;0.80;;;18.40;99.90;;;;;;4950694;29;20418;-82
2021/07/16 04:22:08;;;;;;;0.93;0.83;;;18.40;99.90;;;;;;4935541;29;20447;-83
2021/07/16 04:24:35;;;;;;;1.60;1.47;;;18.40;99.90;;;;;;4937019;29;20438;-82
2021/07/16 04:27:02;;;;;;;3.10;1.80;;;18.40;99.90;;;;;;4935361;29;20423;-83
2021/07/16 04:29:27;;;;;;;2.10;1.43;;;18.30;99.90;;;;;;4935816;29;20465;-82
2021/07/16 04:31:53;;;;;;;1.40;1.10;;;18.30;99.90;;;;;;4933589;29;21035;-83
2021/07/16 04:34:19;;;;;;;1.17;0.90;;;18.20;99.90;;;;;;4935052;29;20205;-83
2021/07/16 04:36:45;;;;;;;1.63;1.00;;;18.20;99.90;;;;;;4935522;29;20434;-82
2021/07/16 04:39:11;;;;;;;1.30;1.20;;;18.20;99.90;;;;;;4933569;29;20178;-84
2021/07/16 04:41:37;;;;;;;1.93;0.80;;;18.20;99.90;;;;;;4932834;29;20199;-84
2021/07/16 04:44:03;;;;;;;1.83;1.73;;;18.20;99.90;;;;;;4935074;29;20473;-84
2021/07/16 04:46:28;;;;;;;1.90;1.80;;;18.10;99.90;;;;;;4934353;29;20178;-85
2021/07/16 04:48:57;;;;;;;2.40;1.00;;;18.10;99.90;;;;;;4935564;29;20186;-83
2021/07/16 04:51:27;;;;;;;1.50;1.30;;;18.00;99.90;;;;;;4933195;29;20269;-83
2021/07/16 04:53:53;;;;;;;1.10;1.00;;;18.10;99.90;;;;;;4935505;29;20431;-82
2021/07/16 04:56:20;;;;;;;1.23;0.90;;;18.00;99.90;;;;;;4934122;29;20489;-83
2021/07/16 04:58:45;;;;;;;2.90;2.20;;;18.00;99.90;;;;;;4936741;29;20427;-83
2021/07/16 05:01:11;;;;;;;3.27;3.07;;;18.10;99.90;;;;;;4936961;29;20823;-83
2021/07/16 05:03:36;;;;;;;2.67;2.47;;;18.10;99.90;;;;;;4937731;29;20208;-83
2021/07/16 05:06:02;;;;;;;3.97;2.10;;;18.10;99.90;;;;;;4934874;29;20178;-83
2021/07/16 05:08:32;;;;;;;4.07;3.23;;;18.10;99.90;;;;;;4935899;29;20242;-83
2021/07/16 05:10:57;;;;;;;0.80;0.80;;;18.10;99.90;;;;;;4936813;29;20210;-83
2021/07/16 05:13:25;;;;;;;1.00;1.00;;;18.10;99.90;;;;;;4936770;29;20992;-83
2021/07/16 05:15:50;;;;;;;0.80;0.80;;;18.10;99.90;;;;;;4936901;29;20258;-83
2021/07/16 05:18:17;;;;;;;1.83;1.73;;;18.00;99.90;;;;;;4934935;29;20529;-83
2021/07/16 05:20:43;;;;;;;1.00;0.90;;;18.10;99.90;;;;;;4936399;29;20183;-85
2021/07/16 05:23:09;;;;;;;1.03;0.93;;;18.10;99.90;;;;;;4934378;29;20692;-81
2021/07/16 05:25:34;;;;;;;1.87;1.77;;;18.10;99.90;;;;;;4935209;28;21059;-83
2021/07/16 05:28:00;;;;;;;1.40;1.30;;;18.10;99.90;;;;;;4936007;29;20601;-83
2021/07/16 05:30:25;;;;;;;1.17;1.07;;;18.10;99.90;;;;;;4936911;29;20217;-83
2021/07/16 05:32:51;;;;;;;2.97;2.20;;;18.10;99.90;;;;;;4939572;29;20216;-82
2021/07/16 05:35:20;;;;;;;3.03;1.40;;;18.00;99.90;;;;;;4933938;29;20182;-83
2021/07/16 05:37:46;;;;;;;2.40;1.87;;;18.10;99.90;;;;;;4946353;29;20178;-83
2021/07/16 05:40:13;;;;;;;2.27;2.17;;;18.00;99.90;;;;;;4936555;29;20540;-83
2021/07/16 05:42:38;;;;;;;1.97;1.83;;;18.00;99.90;;;;;;4935306;29;20494;-83
2021/07/16 05:45:04;;;;;;;0.93;0.93;;;18.00;99.90;;;;;;4934763;29;20443;-83
2021/07/16 05:47:30;;;;;;;1.53;1.43;;;18.10;99.90;;;;;;4935127;29;20541;-83
2021/07/16 05:49:56;;;;;;;4.50;0.90;;;18.00;99.90;;;;;;4935003;29;20442;-82
2021/07/16 05:52:23;;;;;;;1.90;1.13;;;18.10;99.90;;;;;;4948097;29;20299;-84
2021/07/16 05:54:48;;;;;;;2.67;1.20;;;18.10;99.90;;;;;;4930031;29;20203;-83
2021/07/16 05:57:14;;;;;;;1.20;0.77;;;18.10;99.90;;;;;;4933043;29;20905;-83
2021/07/16 05:59:39;;;;;;;4.20;0.90;;;18.00;99.90;;;;;;4935625;29;20565;-83
2021/07/16 06:02:05;;;;;;;1.93;1.73;;;18.00;99.90;;;;;;4944101;29;20258;-83
2021/07/16 06:04:32;;;;;;;1.03;0.93;;;18.00;99.90;;;;;;4931580;29;20234;-82
2021/07/16 06:06:57;;;;;;;1.53;0.97;;;18.10;99.90;;;;;;4943338;28;20519;-84
2021/07/16 06:09:23;;;;;;;1.80;0.90;;;17.90;99.90;;;;;;4934058;29;20462;-82
2021/07/16 06:11:49;;;;;;;2.27;1.20;;;17.90;99.90;;;;;;4930858;29;20248;-81
2021/07/16 06:14:14;;;;;;;1.30;1.17;;;17.90;99.90;;;;;;4929253;29;21049;-82
2021/07/16 06:16:40;;;;;;;1.70;1.10;;;17.90;99.90;;;;;;4943828;29;20179;-83
2021/07/16 06:19:05;;;;;;;4.60;2.37;;;17.90;99.90;;;;;;4941673;29;20576;-83
2021/07/16 06:21:31;;;;;;;2.47;1.33;;;17.90;99.90;;;;;;4939410;29;20202;-82
2021/07/16 06:23:56;;;;;;;0.73;0.63;;;17.80;99.90;;;;;;4938840;29;20190;-82
2021/07/16 06:26:22;;;;;;;1.73;1.57;;;17.80;99.90;;;;;;4943920;28;20185;-82
2021/07/16 06:28:48;;;;;;;2.20;1.67;;;17.90;99.90;;;;;;4956023;29;20531;-81
2021/07/16 06:31:14;;;;;;;3.47;1.93;;;18.00;99.90;;;;;;4939786;29;20210;-83
2021/07/16 06:33:39;;;;;;;1.40;1.10;;;18.00;99.90;;;;;;4934526;29;20499;-82
2021/07/16 06:36:06;;;;;;;3.03;1.53;;;17.90;99.90;;;;;;4942203;29;20539;-82
2021/07/16 06:38:31;;;;;;;3.67;2.60;;;18.10;99.90;;;;;;4935725;29;20186;-81
2021/07/16 06:40:57;;;;;;;1.20;0.93;;;18.10;99.90;;;;;;4937178;29;20841;-82
2021/07/16 06:43:23;;;;;;;2.77;2.53;;;18.10;99.90;;;;;;4932939;29;20258;-83
2021/07/16 06:45:48;;;;;;;2.30;0.97;;;18.10;99.90;;;;;;4929646;29;20184;-82
2021/07/16 06:48:14;;;;;;;2.43;1.40;;;18.10;99.90;;;;;;4924115;29;20190;-82
2021/07/16 06:50:39;;;;;;;2.23;1.83;;;18.10;99.90;;;;;;4925588;29;20604;-82
2021/07/16 06:53:05;;;;;;;4.27;2.20;;;18.20;99.90;;;;;;4937446;29;20206;-82
2021/07/16 06:55:30;;;;;;;1.20;1.10;;;18.10;99.90;;;;;;4932862;29;20223;-83
2021/07/16 06:57:56;;;;;;;4.40;2.13;;;18.00;99.90;;;;;;4931692;29;20171;-81
2021/07/16 07:00:21;;;;;;;3.83;2.83;;;18.10;99.90;;;;;;4939914;29;20206;-83
2021/07/16 07:02:47;;;;;;;2.10;1.20;;;18.20;99.90;;;;;;4927080;29;20286;-83
2021/07/16 07:05:12;;;;;;;2.43;2.17;;;18.30;99.90;;;;;;4947065;28;20338;-83
2021/07/16 07:07:38;;;;;;;1.13;1.07;;;18.30;99.90;;;;;;4937915;29;20209;-82
2021/07/16 07:10:04;;;;;;;5.47;1.60;;;18.30;99.90;;;;;;4950679;29;20170;-83
2021/07/16 07:12:30;;;;;;;5.13;2.10;;;18.40;99.90;;;;;;4936687;28;20215;-82
2021/07/16 07:14:55;;;;;;;3.83;2.00;;;18.40;99.90;;;;;;4940247;29;20439;-82
2021/07/16 07:17:21;;;;;;;3.20;1.23;;;18.50;99.90;;;;;;4937064;29;20179;-83
2021/07/16 07:19:46;;;;;;;2.20;1.33;;;18.50;99.90;;;;;;4938627;29;20680;-82
2021/07/16 07:22:12;;;;;;;1.20;0.80;;;18.50;99.90;;;;;;4934307;29;20286;-82
2021/07/16 07:24:37;;;;;;;3.70;1.80;;;18.60;99.90;;;;;;4942501;29;20205;-82
2021/07/16 07:27:03;;;;;;;1.07;0.97;;;18.60;99.90;;;;;;4941824;28;20745;-84
2021/07/16 07:29:32;;;;;;;0.70;0.60;;;18.70;99.90;;;;;;4938138;29;20258;-84
2021/07/16 07:31:57;;;;;;;0.83;0.80;;;18.70;99.90;;;;;;4937463;29;20466;-82
2021/07/16 07:34:23;;;;;;;1.10;0.73;;;18.60;99.90;;;;;;4936995;29;20512;-82
2021/07/16 07:36:49;;;;;;;2.10;2.00;;;18.60;99.90;;;;;;4939621;29;20179;-82
2021/07/16 07:39:16;;;;;;;2.10;1.63;;;18.70;99.90;;;;;;4946486;28;20175;-81
2021/07/16 07:41:45;;;;;;;1.47;1.37;;;18.70;99.90;;;;;;4938212;29;20442;-82
2021/07/16 07:44:11;;;;;;;1.63;1.40;;;18.70;99.90;;;;;;4946053;29;20432;-82
2021/07/16 07:46:37;;;;;;;1.43;1.00;;;18.70;99.90;;;;;;4943830;28;20427;-83
2021/07/16 07:49:03;;;;;;;1.20;0.97;;;18.80;99.90;;;;;;4936751;29;20943;-82
2021/07/16 07:51:31;;;;;;;2.80;1.37;;;18.80;99.90;;;;;;4935663;29;20214;-82
2021/07/16 07:53:57;;;;;;;1.10;1.00;;;18.70;99.90;;;;;;4937544;29;20919;-82
2021/07/16 07:56:22;;;;;;;1.67;1.53;;;18.80;99.90;;;;;;4934815;29;20424;-83
2021/07/16 07:58:48;;;;;;;2.00;1.53;;;18.90;99.90;;;;;;4936577;29;20171;-81
2021/07/16 08:01:13;;;;;;;1.87;1.43;;;18.90;99.90;;;;;;4932859;29;20200;-82
2021/07/16 08:03:39;;;;;;;1.93;1.47;;;18.90;99.90;;;;;;4929008;29;20178;-81
2021/07/16 08:06:05;;;;;;;1.73;1.53;;;18.90;99.90;;;;;;4932799;29;20184;-82
2021/07/16 08:08:31;;;;;;;0.80;0.80;;;18.90;99.90;;;;;;4918245;29;20168;-81
2021/07/16 08:10:57;;;;;;;1.60;1.50;;;18.90;99.90;;;;;;4929932;29;20525;-81
2021/07/16 08:13:23;;;;;;;0.90;0.80;;;19.00;99.90;;;;;;4933589;29;20427;-83
2021/07/16 08:15:49;;;;;;;1.93;1.73;;;18.90;99.90;;;;;;4929379;29;20187;-83
2021/07/16 08:18:15;;;;;;;2.30;2.10;;;18.90;99.90;;;;;;4930666;29;20257;-83
2021/07/16 08:20:40;;;;;;;0.90;0.80;;;19.00;99.90;;;;;;4948055;29;20450;-82
2021/07/16 08:23:06;;;;;;;1.60;1.50;;;19.20;99.90;;;;;;4941868;28;20362;-81
2021/07/16 08:25:34;;;;;;;4.23;2.43;;;19.30;99.90;;;;;;4930171;29;20194;-81
2021/07/16 08:28:01;;;;;;;2.53;1.87;;;19.30;99.90;;;;;;4935550;29;20167;-81
2021/07/16 08:30:27;;;;;;;2.10;0.93;;;19.50;99.90;;;;;;4937954;29;20435;-83
2021/07/16 08:32:52;;;;;;;2.43;2.27;;;19.60;99.90;;;;;;4935981;29;20573;-82
2021/07/16 08:35:18;;;;;;;5.57;1.53;;;19.70;99.90;;;;;;4936640;29;20175;-81
2021/07/16 08:37:43;;;;;;;2.13;2.03;;;19.80;99.90;;;;;;4935956;29;20178;-81
2021/07/16 08:40:10;;;;;;;1.07;0.97;;;19.90;99.90;;;;;;4932790;29;20178;-82
2021/07/16 08:42:35;;;;;;;0.80;0.70;;;20.10;99.90;;;;;;4932967;29;20218;-82
2021/07/16 08:45:06;;;;;;;2.10;2.00;;;20.30;99.90;;;;;;4948160;29;20426;-81
2021/07/16 08:47:32;;;;;;;1.50;1.00;;;20.40;99.90;;;;;;4940572;29;20167;-83
2021/07/16 08:49:58;;;;;;;0.80;0.70;;;20.60;99.90;;;;;;4936272;29;20423;-82
2021/07/16 08:52:26;;;;;;;1.93;1.83;;;20.80;99.90;;;;;;4935523;29;20545;-82
2021/07/16 08:54:51;;;;;;;1.90;1.80;;;21.10;99.90;;;;;;4934868;29;20451;-81
2021/07/16 08:57:18;;;;;;;2.63;2.40;;;21.30;99.90;;;;;;4936011;29;20453;-82
2021/07/16 08:59:44;;;;;;;1.50;1.40;;;21.40;99.90;;;;;;4924264;29;20242;-80
2021/07/16 09:02:10;;;;;;;1.27;1.17;;;21.60;99.90;;;;;;4932181;29;20475;-83
2021/07/16 09:04:41;;;;;;;1.10;1.00;;;21.80;99.90;;;;;;4949337;28;20176;-81
2021/07/16 09:07:07;;;;;;;1.30;1.20;;;22.00;99.90;;;;;;4951519;28;20446;-82
2021/07/16 09:09:36;;;;;;;5.13;1.70;;;22.10;99.90;;;;;;4939777;29;20435;-83
2021/07/16 09:12:07;;;;;;;2.43;2.07;;;22.10;99.90;;;;;;4922102;29;20475;-82
2021/07/16 09:14:33;;;;;;;1.47;1.37;;;22.00;99.90;;;;;;4949386;28;20430;-82
2021/07/16 09:17:09;;;;;;;1.20;0.90;;;22.00;99.90;;;;;;4935359;29;20534;-82
2021/07/16 09:19:50;;;;;;;1.00;0.77;;;22.00;99.90;;;;;;4935274;29;20187;-80
2021/07/16 09:22:19;;;;;;;1.93;1.20;;;22.00;99.90;;;;;;4937956;29;20605;-80
2021/07/16 09:24:59;;;;;;;2.40;2.13;;;21.90;99.90;;;;;;4949583;29;20870;-81
2021/07/16 09:27:40;;;;;;;1.00;0.90;;;21.80;99.90;;;;;;4956497;28;20461;-82
2021/07/16 09:30:28;;;;;;;1.10;1.00;;;21.70;99.90;;;;;;4931655;29;20474;-82
2021/07/16 09:32:55;;;;;;;1.80;1.27;;;21.80;99.90;;;;;;4935316;29;20474;-82
2021/07/16 09:35:29;;;;;;;1.40;0.93;;;21.60;99.90;;;;;;4935182;29;20426;-81
2021/07/16 09:38:02;;;;;;;3.27;1.03;;;21.60;99.90;;;;;;4936592;29;20502;-82
2021/07/16 09:40:36;;;;;;;2.70;1.77;;;21.50;99.90;;;;;;4932966;29;20474;-80
2021/07/16 09:43:11;;;;;;;1.23;1.13;;;21.50;99.90;;;;;;4928431;29;20455;-80
2021/07/16 09:45:58;;;;;;;2.63;1.63;;;21.40;99.90;;;;;;4934232;29;20562;-81
2021/07/16 09:48:26;;;;;;;1.90;0.90;;;21.20;99.90;;;;;;4934361;29;20466;-80
2021/07/16 09:51:12;;;;;;;0.90;0.60;;;21.20;99.90;;;;;;4933558;29;20537;-80
2021/07/16 09:54:11;;;;;;;1.63;1.13;;;21.10;99.90;;;;;;4962281;28;20411;-80
2021/07/16 09:56:37;;;;;;;2.70;1.10;;;21.00;99.90;;;;;;4920370;29;20436;-80
2021/07/16 09:59:10;;;;;;;1.23;1.00;;;21.00;99.90;;;;;;4934178;29;20489;-81
2021/07/16 10:01:44;;;;;;;1.73;1.37;;;20.90;99.90;;;;;;4945187;28;21010;-81
2021/07/16 10:04:23;;;;;;;2.70;1.50;;;20.90;99.90;;;;;;4936949;29;20437;-82
2021/07/16 10:06:51;;;;;;;0.80;0.70;;;20.90;99.90;;;;;;4933920;29;20805;-81
2021/07/16 10:09:18;;;;;;;1.10;0.93;;;20.90;99.90;;;;;;4945631;29;20429;-80
2021/07/16 10:12:04;;;;;;;1.57;1.47;;;20.90;99.90;;;;;;4940577;28;20474;-81
2021/07/16 10:14:29;;;;;;;3.83;2.10;;;20.90;99.90;;;;;;4932253;29;20426;-81
2021/07/16 10:16:55;;;;;;;1.20;0.97;;;20.90;99.90;;;;;;4944737;29;20418;-81
2021/07/16 10:19:21;;;;;;;0.80;0.80;;;21.00;99.90;;;;;;4941996;28;20183;-82
2021/07/16 10:21:48;;;;;;;1.40;1.30;;;21.10;99.90;;;;;;4938399;29;20203;-82
2021/07/16 10:24:18;;;;;;;1.53;0.93;;;21.20;99.90;;;;;;4947578;29;20433;-81
2021/07/16 10:26:47;;;;;;;1.07;0.97;;;21.40;99.90;;;;;;4942331;28;21002;-81
2021/07/16 10:29:37;;;;;;;1.73;1.53;;;21.50;99.90;;;;;;4941578;29;20419;-81
2021/07/16 10:32:03;;;;;;;0.80;0.70;;;21.60;99.90;;;;;;4927723;29;20550;-81
2021/07/16 10:34:30;;;;;;;1.30;1.07;;;21.60;99.90;;;;;;4923549;29;20507;-81
2021/07/16 10:37:02;;;;;;;2.20;0.93;;;21.80;99.90;;;;;;4932183;29;20418;-83
2021/07/16 10:39:46;;;;;;;1.43;1.13;;;22.00;99.90;;;;;;4958479;28;20420;-81
2021/07/16 10:42:27;;;;;;;0.80;0.60;;;22.20;99.90;;;;;;4952502;29;21006;-82
2021/07/16 10:44:54;;;;;;;1.00;0.80;;;22.30;99.90;;;;;;4936149;29;20438;-83
2021/07/16 10:47:50;;;;;;;1.70;1.30;;;22.40;99.90;;;;;;4932762;29;20522;-81
2021/07/16 10:50:27;;;;;;;0.70;0.60;;;22.40;99.90;;;;;;4945008;29;20798;-80
2021/07/16 10:52:54;;;;;;;11.73;1.90;;;22.40;99.90;;;;;;4942516;29;20526;-82
2021/07/16 10:55:39;;;;;;;1.13;1.03;;;22.40;99.90;;;;;;4946764;29;20461;-80
2021/07/16 10:58:18;;;;;;;0.80;0.70;;;22.50;99.90;;;;;;4941913;29;20485;-81
2021/07/16 11:00:43;;;;;;;1.40;1.30;;;22.50;99.90;;;;;;4958007;28;20480;-80
2021/07/16 11:03:10;;;;;;;1.63;1.53;;;22.60;99.90;;;;;;4945810;29;20438;-82
2021/07/16 11:05:39;;;;;;;0.87;0.80;;;22.50;99.90;;;;;;4939459;29;20171;-81
2021/07/16 11:08:06;;;;;;;0.73;0.60;;;22.50;99.90;;;;;;4954595;29;20414;-80
2021/07/16 11:10:50;;;;;;;0.97;0.87;;;22.40;99.90;;;;;;4931582;29;20426;-81
2021/07/16 11:13:41;;;;;;;2.70;1.10;;;22.50;99.90;;;;;;4950040;28;20521;-81
2021/07/16 11:16:16;;;;;;;1.20;1.10;;;22.60;99.90;;;;;;4956815;29;20958;-81
2021/07/16 11:19:03;;;;;;;0.83;0.80;;;22.60;99.90;;;;;;4944157;29;20407;-81
2021/07/16 11:21:47;;;;;;;1.00;0.87;;;22.50;99.90;;;;;;4949950;29;20463;-80
2021/07/16 11:24:19;;;;;;;1.80;1.70;;;22.60;99.90;;;;;;4944833;29;20427;-81
2021/07/16 11:26:53;;;;;;;2.03;1.93;;;22.80;99.90;;;;;;4950458;29;20557;-81
2021/07/16 11:29:21;;;;;;;0.97;0.87;;;23.10;99.90;;;;;;4955798;29;20421;-81
2021/07/16 11:31:47;;;;;;;0.90;0.70;;;23.30;99.90;;;;;;4944133;29;20467;-80
2021/07/16 11:34:17;;;;;;;1.77;1.17;;;23.60;99.90;;;;;;4945416;29;20425;-80
2021/07/16 11:36:49;;;;;;;2.43;2.23;;;23.80;99.90;;;;;;4945734;29;20445;-81
2021/07/16 11:39:31;;;;;;;1.00;0.80;;;23.90;99.90;;;;;;4953732;28;20422;-81
2021/07/16 11:41:57;;;;;;;0.97;0.87;;;24.10;99.90;;;;;;4942212;29;20498;-81
2021/07/16 11:44:41;;;;;;;1.77;0.87;;;24.00;99.90;;;;;;4943306;29;20510;-81
2021/07/16 11:47:18;;;;;;;3.83;2.10;;;24.00;99.90;;;;;;4948481;29;20469;-82
2021/07/16 11:49:52;;;;;;;1.90;1.77;;;24.10;99.90;;;;;;4940469;29;20430;-81
2021/07/16 11:52:26;;;;;;;0.87;0.70;;;24.10;99.90;;;;;;4943936;28;20459;-80
2021/07/16 11:54:54;;;;;;;0.80;0.60;;;24.10;99.90;;;;;;4944300;28;20425;-80
2021/07/16 11:57:20;;;;;;;1.00;0.90;;;24.10;99.90;;;;;;4939312;29;20842;-80
2021/07/16 11:59:53;;;;;;;1.00;0.80;;;24.20;99.90;;;;;;4942969;29;20466;-82
2021/07/16 12:02:40;;;;;;;0.80;0.63;;;24.20;99.90;;;;;;4936690;29;20984;-81
2021/07/16 12:05:57;;;;;;;1.70;1.60;;;24.10;99.90;;;;;;4937896;29;20450;-81
2021/07/16 12:09:08;;;;;;;1.13;1.03;;;24.00;99.90;;;;;;4944456;29;20417;-81
2021/07/16 12:12:39;;;;;;;2.77;1.17;;;23.80;99.90;;;;;;4957359;28;21029;-80
2021/07/16 12:15:30;;;;;;;0.83;0.70;;;23.60;99.90;;;;;;4935703;29;20426;-81
2021/07/16 12:18:00;;;;;;;1.60;1.50;;;23.50;99.90;;;;;;4957101;29;20425;-81
2021/07/16 12:20:34;;;;;;;1.27;0.70;;;23.30;99.90;;;;;;4931175;29;20516;-80
2021/07/16 12:23:08;;;;;;;2.03;1.13;;;23.20;99.90;;;;;;4954882;29;20442;-80
2021/07/16 12:25:37;;;;;;;1.73;1.63;;;23.10;99.90;;;;;;4970618;28;20469;-81
2021/07/16 12:28:21;;;;;;;0.90;0.87;;;23.00;99.90;;;;;;4945910;29;20450;-81
2021/07/16 12:30:47;;;;;;;3.53;3.20;;;23.10;99.90;;;;;;4945218;29;20418;-81
2021/07/16 12:33:15;;;;;;;1.00;0.73;;;23.10;99.90;;;;;;4937496;29;20531;-82
2021/07/16 12:35:42;;;;;;;0.97;0.87;;;23.20;99.90;;;;;;4938126;29;20422;-80
2021/07/16 12:38:18;;;;;;;0.97;0.90;;;23.30;99.90;;;;;;4933550;29;20430;-81
2021/07/16 12:40:47;;;;;;;0.80;0.70;;;23.40;99.90;;;;;;4938271;29;20426;-81
2021/07/16 12:43:19;;;;;;;3.17;1.87;;;23.30;99.90;;;;;;4939745;29;20484;-80
2021/07/16 12:45:57;;;;;;;1.53;1.20;;;23.40;99.90;;;;;;4940400;29;20426;-81
2021/07/16 12:48:35;;;;;;;1.73;1.60;;;23.30;99.90;;;;;;4941070;29;20426;-80
2021/07/16 12:51:19;;;;;;;1.27;1.17;;;23.20;99.90;;;;;;4959031;28;21034;-80
2021/07/16 12:53:58;;;;;;;1.13;1.03;;;23.30;99.90;;;;;;4943554;28;20796;-81
2021/07/16 12:56:38;;;;;;;0.90;0.80;;;23.20;99.90;;;;;;4948636;29;20430;-81
2021/07/16 12:59:26;;;;;;;7.80;1.60;;;23.10;99.90;;;;;;4955913;29;20946;-81